< < Back
Terminal Aerodrome Forecast


Current Version              Previous Versions:   1  2  3  4  5  6  7  8  9  

Terminal Aerodrome Forecast

046
FTUS44 KHUN 240520
TAFHSV
TAF
KHSV 240520Z 2406/2506 09003KT P6SM FEW250
     FM241400 19008KT P6SM SCT250
     FM241800 17010G18KT P6SM SCT050 BKN250
     FM250100 18012G22KT P6SM SCT035 BKN050 OVC250
     FM250400 19012G22KT P6SM VCTS BKN025CB OVC050=



Latest METAR

900
SAUS80 KWBC 250600 RRC
MTRHSV
METAR KHSV 250553Z AUTO 24010KT 10SM OVC100 20/16 A2981 RMK AO2 RAE11
SLP087 P0000 60002 T02000161 10256 20194 402780067 53002


USA.gov is the U.S. government's official web portal to all federal, state and local government web resources and services.